sensor_id;sensor_type;location;lat;lon;timestamp;P1;durP1;ratioP1;P2;durP2;ratioP2
15102;SDS011;7652;53.584;9.998;2023-02-04T00:00:13;1.00;;;0.70;;
15102;SDS011;7652;53.584;9.998;2023-02-04T00:03:17;0.33;;;0.33;;
15102;SDS011;7652;53.584;9.998;2023-02-04T00:06:22;1.70;;;0.70;;
15102;SDS011;7652;53.584;9.998;2023-02-04T00:09:25;0.77;;;0.60;;
15102;SDS011;7652;53.584;9.998;2023-02-04T00:12:27;2.63;;;0.60;;
15102;SDS011;7652;53.584;9.998;2023-02-04T00:15:31;0.93;;;0.63;;
15102;SDS011;7652;53.584;9.998;2023-02-04T00:18:33;0.87;;;0.40;;
15102;SDS011;7652;53.584;9.998;2023-02-04T00:21:38;2.37;;;0.50;;
15102;SDS011;7652;53.584;9.998;2023-02-04T00:24:41;2.60;;;0.80;;
15102;SDS011;7652;53.584;9.998;2023-02-04T00:27:48;1.33;;;0.43;;
15102;SDS011;7652;53.584;9.998;2023-02-04T00:30:51;2.47;;;0.50;;
15102;SDS011;7652;53.584;9.998;2023-02-04T00:33:54;1.73;;;0.70;;
15102;SDS011;7652;53.584;9.998;2023-02-04T00:36:58;0.83;;;0.60;;
15102;SDS011;7652;53.584;9.998;2023-02-04T00:40:01;1.10;;;0.73;;
15102;SDS011;7652;53.584;9.998;2023-02-04T00:43:04;1.40;;;0.70;;
15102;SDS011;7652;53.584;9.998;2023-02-04T00:46:07;1.17;;;0.70;;
15102;SDS011;7652;53.584;9.998;2023-02-04T00:49:10;1.00;;;0.60;;
15102;SDS011;7652;53.584;9.998;2023-02-04T00:52:15;2.60;;;0.67;;
15102;SDS011;7652;53.584;9.998;2023-02-04T00:55:18;1.17;;;0.90;;
15102;SDS011;7652;53.584;9.998;2023-02-04T00:58:21;1.33;;;0.67;;
15102;SDS011;7652;53.584;9.998;2023-02-04T01:01:24;2.37;;;0.90;;
15102;SDS011;7652;53.584;9.998;2023-02-04T01:04:27;0.90;;;0.70;;
15102;SDS011;7652;53.584;9.998;2023-02-04T01:07:31;1.20;;;0.73;;
15102;SDS011;7652;53.584;9.998;2023-02-04T01:10:34;1.30;;;0.67;;
15102;SDS011;7652;53.584;9.998;2023-02-04T01:13:37;0.90;;;0.70;;
15102;SDS011;7652;53.584;9.998;2023-02-04T01:16:40;0.77;;;0.77;;
15102;SDS011;7652;53.584;9.998;2023-02-04T01:19:43;1.83;;;0.90;;
15102;SDS011;7652;53.584;9.998;2023-02-04T01:22:48;0.70;;;0.70;;
15102;SDS011;7652;53.584;9.998;2023-02-04T01:25:51;1.40;;;0.70;;
15102;SDS011;7652;53.584;9.998;2023-02-04T01:28:54;0.83;;;0.70;;
15102;SDS011;7652;53.584;9.998;2023-02-04T01:31:56;2.60;;;0.93;;
15102;SDS011;7652;53.584;9.998;2023-02-04T01:34:59;2.10;;;0.80;;
15102;SDS011;7652;53.584;9.998;2023-02-04T01:38:04;0.57;;;0.57;;
15102;SDS011;7652;53.584;9.998;2023-02-04T01:41:07;2.90;;;1.03;;
15102;SDS011;7652;53.584;9.998;2023-02-04T01:44:10;2.47;;;0.87;;
15102;SDS011;7652;53.584;9.998;2023-02-04T01:47:13;1.03;;;0.73;;
15102;SDS011;7652;53.584;9.998;2023-02-04T01:50:16;1.50;;;0.93;;
15102;SDS011;7652;53.584;9.998;2023-02-04T01:53:21;1.53;;;1.10;;
15102;SDS011;7652;53.584;9.998;2023-02-04T01:56:26;1.10;;;0.90;;
15102;SDS011;7652;53.584;9.998;2023-02-04T01:59:31;2.87;;;0.93;;
15102;SDS011;7652;53.584;9.998;2023-02-04T02:02:36;0.70;;;0.70;;
15102;SDS011;7652;53.584;9.998;2023-02-04T02:05:45;0.60;;;0.60;;
15102;SDS011;7652;53.584;9.998;2023-02-04T02:08:52;1.30;;;0.70;;
15102;SDS011;7652;53.584;9.998;2023-02-04T02:11:55;2.10;;;0.90;;
15102;SDS011;7652;53.584;9.998;2023-02-04T02:14:58;3.40;;;0.77;;
15102;SDS011;7652;53.584;9.998;2023-02-04T02:18:01;4.80;;;1.90;;
15102;SDS011;7652;53.584;9.998;2023-02-04T02:21:05;1.23;;;1.00;;
15102;SDS011;7652;53.584;9.998;2023-02-04T02:24:22;1.10;;;0.90;;
15102;SDS011;7652;53.584;9.998;2023-02-04T02:27:27;1.37;;;0.83;;
15102;SDS011;7652;53.584;9.998;2023-02-04T02:30:30;1.07;;;0.97;;
15102;SDS011;7652;53.584;9.998;2023-02-04T02:33:34;1.10;;;0.93;;
15102;SDS011;7652;53.584;9.998;2023-02-04T02:36:37;1.67;;;0.80;;
15102;SDS011;7652;53.584;9.998;2023-02-04T02:39:42;1.00;;;0.80;;
15102;SDS011;7652;53.584;9.998;2023-02-04T02:42:47;1.27;;;0.97;;
15102;SDS011;7652;53.584;9.998;2023-02-04T02:45:52;1.10;;;1.00;;
15102;SDS011;7652;53.584;9.998;2023-02-04T02:48:56;0.80;;;0.80;;
15102;SDS011;7652;53.584;9.998;2023-02-04T02:51:59;2.50;;;0.97;;
15102;SDS011;7652;53.584;9.998;2023-02-04T02:55:04;1.30;;;1.00;;
15102;SDS011;7652;53.584;9.998;2023-02-04T02:58:14;1.13;;;0.90;;
15102;SDS011;7652;53.584;9.998;2023-02-04T03:01:24;3.23;;;1.00;;
15102;SDS011;7652;53.584;9.998;2023-02-04T03:04:27;0.77;;;0.77;;
15102;SDS011;7652;53.584;9.998;2023-02-04T03:07:33;1.20;;;0.80;;
15102;SDS011;7652;53.584;9.998;2023-02-04T03:10:37;1.27;;;1.20;;
15102;SDS011;7652;53.584;9.998;2023-02-04T03:13:40;1.50;;;1.00;;
15102;SDS011;7652;53.584;9.998;2023-02-04T03:16:44;1.67;;;1.00;;
15102;SDS011;7652;53.584;9.998;2023-02-04T03:19:48;0.83;;;0.83;;
15102;SDS011;7652;53.584;9.998;2023-02-04T03:22:52;2.07;;;1.23;;
15102;SDS011;7652;53.584;9.998;2023-02-04T03:25:57;1.53;;;1.03;;
15102;SDS011;7652;53.584;9.998;2023-02-04T03:29:00;1.10;;;1.00;;
15102;SDS011;7652;53.584;9.998;2023-02-04T03:32:03;1.20;;;1.10;;
15102;SDS011;7652;53.584;9.998;2023-02-04T03:35:06;1.10;;;1.00;;
15102;SDS011;7652;53.584;9.998;2023-02-04T03:38:10;1.73;;;1.50;;
15102;SDS011;7652;53.584;9.998;2023-02-04T03:41:14;1.23;;;0.90;;
15102;SDS011;7652;53.584;9.998;2023-02-04T03:44:17;1.93;;;0.80;;
15102;SDS011;7652;53.584;9.998;2023-02-04T03:47:21;1.17;;;1.07;;
15102;SDS011;7652;53.584;9.998;2023-02-04T03:50:24;1.23;;;1.17;;
15102;SDS011;7652;53.584;9.998;2023-02-04T03:53:27;2.77;;;1.50;;
15102;SDS011;7652;53.584;9.998;2023-02-04T03:56:31;1.37;;;1.20;;
15102;SDS011;7652;53.584;9.998;2023-02-04T03:59:34;1.37;;;1.27;;
15102;SDS011;7652;53.584;9.998;2023-02-04T04:02:37;1.90;;;1.50;;
15102;SDS011;7652;53.584;9.998;2023-02-04T04:05:40;2.27;;;1.33;;
15102;SDS011;7652;53.584;9.998;2023-02-04T04:08:43;2.03;;;1.80;;
15102;SDS011;7652;53.584;9.998;2023-02-04T04:11:48;1.23;;;1.00;;
15102;SDS011;7652;53.584;9.998;2023-02-04T04:14:51;1.33;;;1.10;;
15102;SDS011;7652;53.584;9.998;2023-02-04T04:17:53;2.30;;;1.57;;
15102;SDS011;7652;53.584;9.998;2023-02-04T04:20:56;3.03;;;1.60;;
15102;SDS011;7652;53.584;9.998;2023-02-04T04:23:59;1.97;;;1.73;;
15102;SDS011;7652;53.584;9.998;2023-02-04T04:27:04;2.67;;;1.37;;
15102;SDS011;7652;53.584;9.998;2023-02-04T04:30:07;1.50;;;1.27;;
15102;SDS011;7652;53.584;9.998;2023-02-04T04:33:11;2.57;;;1.17;;
15102;SDS011;7652;53.584;9.998;2023-02-04T04:36:14;2.00;;;1.27;;
15102;SDS011;7652;53.584;9.998;2023-02-04T04:39:17;1.30;;;1.20;;
15102;SDS011;7652;53.584;9.998;2023-02-04T04:42:21;1.40;;;1.30;;
15102;SDS011;7652;53.584;9.998;2023-02-04T04:45:24;1.67;;;1.33;;
15102;SDS011;7652;53.584;9.998;2023-02-04T04:48:27;1.97;;;1.33;;
15102;SDS011;7652;53.584;9.998;2023-02-04T04:51:30;0.93;;;0.93;;
15102;SDS011;7652;53.584;9.998;2023-02-04T04:54:33;1.33;;;1.10;;
15102;SDS011;7652;53.584;9.998;2023-02-04T04:57:37;2.60;;;1.30;;
15102;SDS011;7652;53.584;9.998;2023-02-04T05:00:40;1.20;;;1.10;;
15102;SDS011;7652;53.584;9.998;2023-02-04T05:03:43;2.20;;;1.10;;
15102;SDS011;7652;53.584;9.998;2023-02-04T05:06:46;1.30;;;1.03;;
15102;SDS011;7652;53.584;9.998;2023-02-04T05:09:49;1.30;;;1.20;;
15102;SDS011;7652;53.584;9.998;2023-02-04T05:12:54;1.63;;;1.10;;
15102;SDS011;7652;53.584;9.998;2023-02-04T05:15:57;2.07;;;1.50;;
15102;SDS011;7652;53.584;9.998;2023-02-04T05:19:00;1.10;;;1.00;;
15102;SDS011;7652;53.584;9.998;2023-02-04T05:22:02;1.20;;;1.10;;
15102;SDS011;7652;53.584;9.998;2023-02-04T05:25:05;1.70;;;1.50;;
15102;SDS011;7652;53.584;9.998;2023-02-04T05:28:10;1.53;;;1.10;;
15102;SDS011;7652;53.584;9.998;2023-02-04T05:31:13;1.10;;;1.10;;
15102;SDS011;7652;53.584;9.998;2023-02-04T05:34:16;3.10;;;1.53;;
15102;SDS011;7652;53.584;9.998;2023-02-04T05:37:19;1.73;;;1.40;;
15102;SDS011;7652;53.584;9.998;2023-02-04T05:40:22;1.60;;;1.33;;
15102;SDS011;7652;53.584;9.998;2023-02-04T05:43:26;1.33;;;1.23;;
15102;SDS011;7652;53.584;9.998;2023-02-04T05:46:29;3.73;;;1.60;;
15102;SDS011;7652;53.584;9.998;2023-02-04T05:49:32;3.53;;;1.43;;
15102;SDS011;7652;53.584;9.998;2023-02-04T05:52:35;1.43;;;1.33;;
15102;SDS011;7652;53.584;9.998;2023-02-04T05:55:38;2.23;;;1.30;;
15102;SDS011;7652;53.584;9.998;2023-02-04T05:58:43;2.30;;;1.17;;
15102;SDS011;7652;53.584;9.998;2023-02-04T06:01:46;1.50;;;1.40;;
15102;SDS011;7652;53.584;9.998;2023-02-04T06:04:49;1.70;;;1.40;;
15102;SDS011;7652;53.584;9.998;2023-02-04T06:07:52;1.43;;;1.30;;
15102;SDS011;7652;53.584;9.998;2023-02-04T06:10:55;1.20;;;1.07;;
15102;SDS011;7652;53.584;9.998;2023-02-04T06:13:59;1.10;;;1.10;;
15102;SDS011;7652;53.584;9.998;2023-02-04T06:17:02;1.57;;;1.47;;
15102;SDS011;7652;53.584;9.998;2023-02-04T06:20:05;2.33;;;1.23;;
15102;SDS011;7652;53.584;9.998;2023-02-04T06:23:09;1.30;;;1.20;;
15102;SDS011;7652;53.584;9.998;2023-02-04T06:26:12;1.87;;;1.57;;
15102;SDS011;7652;53.584;9.998;2023-02-04T06:29:16;1.20;;;1.13;;
15102;SDS011;7652;53.584;9.998;2023-02-04T06:32:19;1.70;;;1.33;;
15102;SDS011;7652;53.584;9.998;2023-02-04T06:35:23;2.33;;;1.33;;
15102;SDS011;7652;53.584;9.998;2023-02-04T06:38:26;2.97;;;1.60;;
15102;SDS011;7652;53.584;9.998;2023-02-04T06:41:29;1.83;;;1.20;;
15102;SDS011;7652;53.584;9.998;2023-02-04T06:44:33;1.90;;;1.53;;
15102;SDS011;7652;53.584;9.998;2023-02-04T06:47:36;2.30;;;1.10;;
15102;SDS011;7652;53.584;9.998;2023-02-04T06:50:39;2.40;;;1.60;;
15102;SDS011;7652;53.584;9.998;2023-02-04T06:53:42;3.47;;;1.57;;
15102;SDS011;7652;53.584;9.998;2023-02-04T06:56:46;1.93;;;1.67;;
15102;SDS011;7652;53.584;9.998;2023-02-04T06:59:50;2.90;;;1.80;;
15102;SDS011;7652;53.584;9.998;2023-02-04T07:02:53;1.97;;;1.63;;
15102;SDS011;7652;53.584;9.998;2023-02-04T07:05:57;2.73;;;1.97;;
15102;SDS011;7652;53.584;9.998;2023-02-04T07:09:00;1.50;;;1.40;;
15102;SDS011;7652;53.584;9.998;2023-02-04T07:12:03;3.30;;;1.83;;
15102;SDS011;7652;53.584;9.998;2023-02-04T07:15:08;1.97;;;1.77;;
15102;SDS011;7652;53.584;9.998;2023-02-04T07:18:11;3.53;;;1.73;;
15102;SDS011;7652;53.584;9.998;2023-02-04T07:21:14;2.63;;;1.97;;
15102;SDS011;7652;53.584;9.998;2023-02-04T07:24:17;1.80;;;1.70;;
15102;SDS011;7652;53.584;9.998;2023-02-04T07:27:20;2.70;;;1.70;;
15102;SDS011;7652;53.584;9.998;2023-02-04T07:30:24;1.73;;;1.60;;
15102;SDS011;7652;53.584;9.998;2023-02-04T07:33:27;2.13;;;1.80;;
15102;SDS011;7652;53.584;9.998;2023-02-04T07:36:30;3.80;;;2.30;;
15102;SDS011;7652;53.584;9.998;2023-02-04T07:39:33;1.93;;;1.73;;
15102;SDS011;7652;53.584;9.998;2023-02-04T07:42:36;2.27;;;2.00;;
15102;SDS011;7652;53.584;9.998;2023-02-04T07:45:40;2.47;;;1.90;;
15102;SDS011;7652;53.584;9.998;2023-02-04T07:48:44;1.87;;;1.77;;
15102;SDS011;7652;53.584;9.998;2023-02-04T07:51:47;2.03;;;1.93;;
15102;SDS011;7652;53.584;9.998;2023-02-04T07:54:50;2.70;;;1.90;;
15102;SDS011;7652;53.584;9.998;2023-02-04T07:57:53;2.43;;;1.70;;
15102;SDS011;7652;53.584;9.998;2023-02-04T08:00:57;1.83;;;1.63;;
15102;SDS011;7652;53.584;9.998;2023-02-04T08:04:01;1.77;;;1.50;;
15102;SDS011;7652;53.584;9.998;2023-02-04T08:07:04;1.70;;;1.60;;
15102;SDS011;7652;53.584;9.998;2023-02-04T08:10:08;1.63;;;1.53;;
15102;SDS011;7652;53.584;9.998;2023-02-04T08:13:11;1.67;;;1.57;;
15102;SDS011;7652;53.584;9.998;2023-02-04T08:16:16;1.30;;;1.20;;
15102;SDS011;7652;53.584;9.998;2023-02-04T08:19:19;3.40;;;1.60;;
15102;SDS011;7652;53.584;9.998;2023-02-04T08:22:22;3.50;;;1.60;;
15102;SDS011;7652;53.584;9.998;2023-02-04T08:25:25;1.87;;;1.40;;
15102;SDS011;7652;53.584;9.998;2023-02-04T08:28:29;2.47;;;1.40;;
15102;SDS011;7652;53.584;9.998;2023-02-04T08:31:33;3.23;;;1.30;;
15102;SDS011;7652;53.584;9.998;2023-02-04T08:34:37;1.80;;;1.57;;
15102;SDS011;7652;53.584;9.998;2023-02-04T08:37:40;2.17;;;1.80;;
15102;SDS011;7652;53.584;9.998;2023-02-04T08:40:43;4.83;;;1.77;;
15102;SDS011;7652;53.584;9.998;2023-02-04T08:43:46;3.40;;;1.80;;
15102;SDS011;7652;53.584;9.998;2023-02-04T08:46:51;2.30;;;1.50;;
15102;SDS011;7652;53.584;9.998;2023-02-04T08:49:54;1.63;;;1.53;;
15102;SDS011;7652;53.584;9.998;2023-02-04T08:52:57;3.53;;;1.40;;
15102;SDS011;7652;53.584;9.998;2023-02-04T08:56:00;3.03;;;1.43;;
15102;SDS011;7652;53.584;9.998;2023-02-04T08:59:03;2.50;;;1.60;;
15102;SDS011;7652;53.584;9.998;2023-02-04T09:02:07;2.13;;;1.50;;
15102;SDS011;7652;53.584;9.998;2023-02-04T09:05:11;1.70;;;1.37;;
15102;SDS011;7652;53.584;9.998;2023-02-04T09:08:14;3.53;;;2.43;;
15102;SDS011;7652;53.584;9.998;2023-02-04T09:11:17;2.10;;;1.10;;
15102;SDS011;7652;53.584;9.998;2023-02-04T09:14:20;1.30;;;1.20;;
15102;SDS011;7652;53.584;9.998;2023-02-04T09:17:24;1.67;;;1.30;;
15102;SDS011;7652;53.584;9.998;2023-02-04T09:20:27;1.63;;;1.37;;
15102;SDS011;7652;53.584;9.998;2023-02-04T09:23:30;1.67;;;1.57;;
15102;SDS011;7652;53.584;9.998;2023-02-04T09:26:33;1.40;;;1.20;;
15102;SDS011;7652;53.584;9.998;2023-02-04T09:29:36;1.37;;;1.17;;
15102;SDS011;7652;53.584;9.998;2023-02-04T09:32:41;1.63;;;1.00;;
15102;SDS011;7652;53.584;9.998;2023-02-04T09:35:43;2.00;;;1.30;;
15102;SDS011;7652;53.584;9.998;2023-02-04T09:38:46;3.30;;;1.47;;
15102;SDS011;7652;53.584;9.998;2023-02-04T09:41:49;2.90;;;1.03;;
15102;SDS011;7652;53.584;9.998;2023-02-04T09:44:54;1.37;;;1.10;;
15102;SDS011;7652;53.584;9.998;2023-02-04T09:47:59;1.10;;;1.00;;
15102;SDS011;7652;53.584;9.998;2023-02-04T09:51:04;1.90;;;1.00;;
15102;SDS011;7652;53.584;9.998;2023-02-04T09:54:10;3.17;;;0.90;;
15102;SDS011;7652;53.584;9.998;2023-02-04T09:57:17;3.03;;;1.50;;
15102;SDS011;7652;53.584;9.998;2023-02-04T10:00:22;2.70;;;1.10;;
15102;SDS011;7652;53.584;9.998;2023-02-04T10:03:28;2.90;;;1.30;;
15102;SDS011;7652;53.584;9.998;2023-02-04T10:06:31;2.17;;;1.10;;
15102;SDS011;7652;53.584;9.998;2023-02-04T10:09:34;1.10;;;1.00;;
15102;SDS011;7652;53.584;9.998;2023-02-04T10:12:38;1.27;;;1.00;;
15102;SDS011;7652;53.584;9.998;2023-02-04T10:15:41;1.77;;;1.10;;
15102;SDS011;7652;53.584;9.998;2023-02-04T10:18:45;0.93;;;0.90;;
15102;SDS011;7652;53.584;9.998;2023-02-04T10:21:48;1.37;;;1.13;;
15102;SDS011;7652;53.584;9.998;2023-02-04T10:24:52;1.47;;;1.27;;
15102;SDS011;7652;53.584;9.998;2023-02-04T10:27:55;2.07;;;1.30;;
15102;SDS011;7652;53.584;9.998;2023-02-04T10:31:00;1.17;;;1.00;;
15102;SDS011;7652;53.584;9.998;2023-02-04T10:34:05;1.90;;;1.10;;
15102;SDS011;7652;53.584;9.998;2023-02-04T10:37:16;1.57;;;1.03;;
15102;SDS011;7652;53.584;9.998;2023-02-04T10:40:25;1.97;;;1.20;;
15102;SDS011;7652;53.584;9.998;2023-02-04T10:43:29;1.90;;;1.00;;
15102;SDS011;7652;53.584;9.998;2023-02-04T10:46:33;1.57;;;1.00;;
15102;SDS011;7652;53.584;9.998;2023-02-04T10:49:37;1.97;;;1.20;;
15102;SDS011;7652;53.584;9.998;2023-02-04T10:52:41;2.13;;;0.90;;
15102;SDS011;7652;53.584;9.998;2023-02-04T10:55:46;0.90;;;0.80;;
15102;SDS011;7652;53.584;9.998;2023-02-04T10:58:51;1.30;;;1.10;;
15102;SDS011;7652;53.584;9.998;2023-02-04T11:01:54;2.00;;;1.27;;
15102;SDS011;7652;53.584;9.998;2023-02-04T11:05:00;1.30;;;1.10;;
15102;SDS011;7652;53.584;9.998;2023-02-04T11:08:16;1.20;;;1.10;;
15102;SDS011;7652;53.584;9.998;2023-02-04T11:11:22;1.47;;;1.10;;
15102;SDS011;7652;53.584;9.998;2023-02-04T11:14:27;2.80;;;1.23;;
15102;SDS011;7652;53.584;9.998;2023-02-04T11:17:32;2.27;;;1.50;;
15102;SDS011;7652;53.584;9.998;2023-02-04T11:20:37;4.20;;;1.20;;
15102;SDS011;7652;53.584;9.998;2023-02-04T11:23:41;2.17;;;1.40;;
15102;SDS011;7652;53.584;9.998;2023-02-04T11:26:45;1.97;;;1.00;;
15102;SDS011;7652;53.584;9.998;2023-02-04T11:29:51;1.70;;;1.60;;
15102;SDS011;7652;53.584;9.998;2023-02-04T11:33:20;4.53;;;1.33;;
15102;SDS011;7652;53.584;9.998;2023-02-04T11:36:26;1.33;;;0.93;;
15102;SDS011;7652;53.584;9.998;2023-02-04T11:39:31;1.80;;;0.90;;
15102;SDS011;7652;53.584;9.998;2023-02-04T11:42:40;2.87;;;1.17;;
15102;SDS011;7652;53.584;9.998;2023-02-04T11:45:43;2.00;;;0.80;;
15102;SDS011;7652;53.584;9.998;2023-02-04T11:48:50;1.63;;;1.07;;
15102;SDS011;7652;53.584;9.998;2023-02-04T11:52:05;1.40;;;1.00;;
15102;SDS011;7652;53.584;9.998;2023-02-04T11:55:14;3.70;;;0.90;;
15102;SDS011;7652;53.584;9.998;2023-02-04T11:58:18;2.03;;;1.27;;
15102;SDS011;7652;53.584;9.998;2023-02-04T12:01:23;1.37;;;1.10;;
15102;SDS011;7652;53.584;9.998;2023-02-04T12:04:31;4.33;;;1.20;;
15102;SDS011;7652;53.584;9.998;2023-02-04T12:07:35;1.47;;;1.10;;
15102;SDS011;7652;53.584;9.998;2023-02-04T12:10:38;0.93;;;0.87;;
15102;SDS011;7652;53.584;9.998;2023-02-04T12:13:52;1.17;;;1.00;;
15102;SDS011;7652;53.584;9.998;2023-02-04T12:16:56;2.60;;;1.00;;
15102;SDS011;7652;53.584;9.998;2023-02-04T12:19:59;1.70;;;1.07;;
15102;SDS011;7652;53.584;9.998;2023-02-04T12:23:04;2.00;;;1.10;;
15102;SDS011;7652;53.584;9.998;2023-02-04T12:26:08;1.33;;;0.90;;
15102;SDS011;7652;53.584;9.998;2023-02-04T12:29:12;1.30;;;0.77;;
15102;SDS011;7652;53.584;9.998;2023-02-04T12:32:14;1.33;;;0.93;;
15102;SDS011;7652;53.584;9.998;2023-02-04T12:35:18;1.20;;;0.97;;
15102;SDS011;7652;53.584;9.998;2023-02-04T12:38:22;1.87;;;0.93;;
15102;SDS011;7652;53.584;9.998;2023-02-04T12:41:25;1.50;;;0.87;;
15102;SDS011;7652;53.584;9.998;2023-02-04T12:44:28;3.10;;;1.13;;
15102;SDS011;7652;53.584;9.998;2023-02-04T12:47:31;1.83;;;1.20;;
15102;SDS011;7652;53.584;9.998;2023-02-04T12:50:34;3.57;;;0.93;;
15102;SDS011;7652;53.584;9.998;2023-02-04T12:53:38;1.00;;;0.90;;
15102;SDS011;7652;53.584;9.998;2023-02-04T12:56:41;1.17;;;1.07;;
15102;SDS011;7652;53.584;9.998;2023-02-04T12:59:45;1.67;;;1.17;;
15102;SDS011;7652;53.584;9.998;2023-02-04T13:02:49;1.90;;;1.10;;
15102;SDS011;7652;53.584;9.998;2023-02-04T13:05:52;4.50;;;1.80;;
15102;SDS011;7652;53.584;9.998;2023-02-04T13:08:56;1.47;;;0.93;;
15102;SDS011;7652;53.584;9.998;2023-02-04T13:11:59;1.20;;;1.10;;
15102;SDS011;7652;53.584;9.998;2023-02-04T13:15:02;1.30;;;0.70;;
15102;SDS011;7652;53.584;9.998;2023-02-04T13:18:06;1.73;;;1.00;;
15102;SDS011;7652;53.584;9.998;2023-02-04T13:21:09;1.13;;;0.97;;
15102;SDS011;7652;53.584;9.998;2023-02-04T13:24:13;2.13;;;1.10;;
15102;SDS011;7652;53.584;9.998;2023-02-04T13:27:17;3.07;;;1.07;;
15102;SDS011;7652;53.584;9.998;2023-02-04T13:30:20;1.33;;;1.00;;
15102;SDS011;7652;53.584;9.998;2023-02-04T13:33:23;2.10;;;1.10;;
15102;SDS011;7652;53.584;9.998;2023-02-04T13:36:26;1.80;;;0.90;;
15102;SDS011;7652;53.584;9.998;2023-02-04T13:39:31;0.90;;;0.90;;
15102;SDS011;7652;53.584;9.998;2023-02-04T13:42:34;1.30;;;0.80;;
15102;SDS011;7652;53.584;9.998;2023-02-04T13:45:37;1.10;;;0.80;;
15102;SDS011;7652;53.584;9.998;2023-02-04T13:48:47;3.10;;;2.00;;
15102;SDS011;7652;53.584;9.998;2023-02-04T13:51:51;5.00;;;2.17;;
15102;SDS011;7652;53.584;9.998;2023-02-04T13:54:55;1.07;;;0.93;;
15102;SDS011;7652;53.584;9.998;2023-02-04T13:57:58;1.57;;;1.00;;
15102;SDS011;7652;53.584;9.998;2023-02-04T14:01:01;1.47;;;0.80;;
15102;SDS011;7652;53.584;9.998;2023-02-04T14:04:04;1.07;;;0.70;;
15102;SDS011;7652;53.584;9.998;2023-02-04T14:07:07;2.00;;;0.90;;
15102;SDS011;7652;53.584;9.998;2023-02-04T14:10:11;1.13;;;0.90;;
15102;SDS011;7652;53.584;9.998;2023-02-04T14:13:14;0.87;;;0.70;;
15102;SDS011;7652;53.584;9.998;2023-02-04T14:16:17;1.50;;;0.97;;
15102;SDS011;7652;53.584;9.998;2023-02-04T14:19:20;3.47;;;1.00;;
15102;SDS011;7652;53.584;9.998;2023-02-04T14:22:27;0.70;;;0.70;;
15102;SDS011;7652;53.584;9.998;2023-02-04T14:25:32;1.37;;;1.00;;
15102;SDS011;7652;53.584;9.998;2023-02-04T14:28:35;1.13;;;0.80;;
15102;SDS011;7652;53.584;9.998;2023-02-04T14:31:38;1.40;;;0.73;;
15102;SDS011;7652;53.584;9.998;2023-02-04T14:34:41;1.63;;;0.93;;
15102;SDS011;7652;53.584;9.998;2023-02-04T14:37:43;0.70;;;0.70;;
15102;SDS011;7652;53.584;9.998;2023-02-04T14:40:48;1.53;;;0.63;;
15102;SDS011;7652;53.584;9.998;2023-02-04T14:43:51;1.23;;;0.87;;
15102;SDS011;7652;53.584;9.998;2023-02-04T14:46:55;1.30;;;0.90;;
15102;SDS011;7652;53.584;9.998;2023-02-04T14:49:58;0.97;;;0.87;;
15102;SDS011;7652;53.584;9.998;2023-02-04T14:53:00;2.03;;;0.70;;
15102;SDS011;7652;53.584;9.998;2023-02-04T14:56:05;1.00;;;0.90;;
15102;SDS011;7652;53.584;9.998;2023-02-04T14:59:08;1.87;;;0.90;;
15102;SDS011;7652;53.584;9.998;2023-02-04T15:02:11;0.83;;;0.70;;
15102;SDS011;7652;53.584;9.998;2023-02-04T15:05:16;0.70;;;0.70;;
15102;SDS011;7652;53.584;9.998;2023-02-04T15:08:19;1.43;;;0.97;;
15102;SDS011;7652;53.584;9.998;2023-02-04T15:11:24;1.13;;;0.90;;
15102;SDS011;7652;53.584;9.998;2023-02-04T15:14:27;1.47;;;0.97;;
15102;SDS011;7652;53.584;9.998;2023-02-04T15:17:30;1.73;;;1.00;;
15102;SDS011;7652;53.584;9.998;2023-02-04T15:20:33;1.30;;;0.93;;
15102;SDS011;7652;53.584;9.998;2023-02-04T15:23:36;1.63;;;1.00;;
15102;SDS011;7652;53.584;9.998;2023-02-04T15:26:40;1.63;;;1.10;;
15102;SDS011;7652;53.584;9.998;2023-02-04T15:29:43;1.33;;;0.83;;
15102;SDS011;7652;53.584;9.998;2023-02-04T15:32:46;1.17;;;1.00;;
15102;SDS011;7652;53.584;9.998;2023-02-04T15:35:49;2.17;;;0.90;;
15102;SDS011;7652;53.584;9.998;2023-02-04T15:38:52;2.57;;;0.80;;
15102;SDS011;7652;53.584;9.998;2023-02-04T15:41:56;1.80;;;0.90;;
15102;SDS011;7652;53.584;9.998;2023-02-04T15:44:59;1.27;;;0.90;;
15102;SDS011;7652;53.584;9.998;2023-02-04T15:48:02;1.53;;;1.20;;
15102;SDS011;7652;53.584;9.998;2023-02-04T15:51:05;1.40;;;1.17;;
15102;SDS011;7652;53.584;9.998;2023-02-04T15:54:08;1.33;;;0.87;;
15102;SDS011;7652;53.584;9.998;2023-02-04T15:57:13;1.60;;;1.03;;
15102;SDS011;7652;53.584;9.998;2023-02-04T16:00:16;1.67;;;1.10;;
15102;SDS011;7652;53.584;9.998;2023-02-04T16:03:19;1.37;;;1.10;;
15102;SDS011;7652;53.584;9.998;2023-02-04T16:06:22;3.03;;;1.70;;
15102;SDS011;7652;53.584;9.998;2023-02-04T16:09:25;2.10;;;1.10;;
15102;SDS011;7652;53.584;9.998;2023-02-04T16:12:29;1.67;;;1.20;;
15102;SDS011;7652;53.584;9.998;2023-02-04T16:15:32;1.20;;;1.10;;
15102;SDS011;7652;53.584;9.998;2023-02-04T16:18:36;1.33;;;1.20;;
15102;SDS011;7652;53.584;9.998;2023-02-04T16:21:38;1.53;;;1.27;;
15102;SDS011;7652;53.584;9.998;2023-02-04T16:24:41;3.97;;;1.50;;
15102;SDS011;7652;53.584;9.998;2023-02-04T16:27:46;2.13;;;1.43;;
15102;SDS011;7652;53.584;9.998;2023-02-04T16:30:49;1.77;;;1.53;;
15102;SDS011;7652;53.584;9.998;2023-02-04T16:33:53;3.53;;;1.50;;
15102;SDS011;7652;53.584;9.998;2023-02-04T16:36:55;3.20;;;1.70;;
15102;SDS011;7652;53.584;9.998;2023-02-04T16:39:58;2.57;;;1.50;;
15102;SDS011;7652;53.584;9.998;2023-02-04T16:43:03;2.90;;;1.37;;
15102;SDS011;7652;53.584;9.998;2023-02-04T16:46:06;1.33;;;1.13;;
15102;SDS011;7652;53.584;9.998;2023-02-04T16:49:09;2.07;;;1.70;;
15102;SDS011;7652;53.584;9.998;2023-02-04T16:52:12;2.37;;;1.60;;
15102;SDS011;7652;53.584;9.998;2023-02-04T16:55:15;3.63;;;1.60;;
15102;SDS011;7652;53.584;9.998;2023-02-04T16:58:19;2.53;;;1.63;;
15102;SDS011;7652;53.584;9.998;2023-02-04T17:01:22;2.93;;;1.70;;
15102;SDS011;7652;53.584;9.998;2023-02-04T17:04:25;1.47;;;1.30;;
15102;SDS011;7652;53.584;9.998;2023-02-04T17:07:28;2.83;;;1.70;;
15102;SDS011;7652;53.584;9.998;2023-02-04T17:10:32;2.23;;;1.63;;
15102;SDS011;7652;53.584;9.998;2023-02-04T17:13:54;3.67;;;1.60;;
15102;SDS011;7652;53.584;9.998;2023-02-04T17:16:57;1.60;;;1.40;;
15102;SDS011;7652;53.584;9.998;2023-02-04T17:20:00;2.40;;;1.40;;
15102;SDS011;7652;53.584;9.998;2023-02-04T17:23:03;1.50;;;1.40;;
15102;SDS011;7652;53.584;9.998;2023-02-04T17:26:06;2.53;;;1.57;;
15102;SDS011;7652;53.584;9.998;2023-02-04T17:29:11;3.23;;;2.20;;
15102;SDS011;7652;53.584;9.998;2023-02-04T17:32:14;2.90;;;1.90;;
15102;SDS011;7652;53.584;9.998;2023-02-04T17:35:17;2.47;;;1.60;;
15102;SDS011;7652;53.584;9.998;2023-02-04T17:38:20;4.27;;;2.80;;
15102;SDS011;7652;53.584;9.998;2023-02-04T17:41:27;5.97;;;3.93;;
15102;SDS011;7652;53.584;9.998;2023-02-04T17:44:32;4.30;;;2.00;;
15102;SDS011;7652;53.584;9.998;2023-02-04T17:47:35;2.60;;;1.90;;
15102;SDS011;7652;53.584;9.998;2023-02-04T17:50:39;2.03;;;1.80;;
15102;SDS011;7652;53.584;9.998;2023-02-04T17:53:42;3.10;;;1.83;;
15102;SDS011;7652;53.584;9.998;2023-02-04T17:56:45;3.37;;;2.30;;
15102;SDS011;7652;53.584;9.998;2023-02-04T17:59:49;2.23;;;1.80;;
15102;SDS011;7652;53.584;9.998;2023-02-04T18:02:52;2.90;;;2.13;;
15102;SDS011;7652;53.584;9.998;2023-02-04T18:05:57;3.67;;;2.13;;
15102;SDS011;7652;53.584;9.998;2023-02-04T18:09:00;2.73;;;1.87;;
15102;SDS011;7652;53.584;9.998;2023-02-04T18:12:10;2.87;;;1.80;;
15102;SDS011;7652;53.584;9.998;2023-02-04T18:15:22;3.27;;;1.80;;
15102;SDS011;7652;53.584;9.998;2023-02-04T18:18:29;3.23;;;2.03;;
15102;SDS011;7652;53.584;9.998;2023-02-04T18:21:33;2.60;;;1.87;;
15102;SDS011;7652;53.584;9.998;2023-02-04T18:24:40;2.83;;;1.90;;
15102;SDS011;7652;53.584;9.998;2023-02-04T18:27:45;2.10;;;1.67;;
15102;SDS011;7652;53.584;9.998;2023-02-04T18:30:51;3.03;;;1.50;;
15102;SDS011;7652;53.584;9.998;2023-02-04T18:33:57;2.43;;;1.70;;
15102;SDS011;7652;53.584;9.998;2023-02-04T18:37:02;2.10;;;1.50;;
15102;SDS011;7652;53.584;9.998;2023-02-04T18:40:25;1.83;;;1.17;;
15102;SDS011;7652;53.584;9.998;2023-02-04T18:43:32;2.53;;;1.50;;